Time;durP1;ratioP1;P1;durP2;ratioP2;P2;SDS_P1;SDS_P2;PMS_P1;PMS_P2;Temp;Humidity;BMP_temperature;BMP_pressure;BME280_temperature;BME280_humidity;BME280_pressure;Samples;Min_cycle;Max_cycle;Signal;HPM_P1;HPM_P2
2022/01/22 00:01:56;;;;;;;;;21.75;18.50;;;;;6.38;74.36;103369.72;5070033;28;45521;-59
2022/01/22 00:04:21;;;;;;;;;25.75;21.00;;;;;6.37;74.46;103362.78;5065085;28;45541;-59
2022/01/22 00:06:49;;;;;;;;;29.00;22.75;;;;;6.38;74.36;103355.91;5061327;28;45398;-59
2022/01/22 00:09:14;;;;;;;;;22.00;21.75;;;;;6.39;74.69;103349.94;5061680;28;45383;-60
2022/01/22 00:11:50;;;;;;;;;30.50;26.75;;;;;6.39;74.76;103348.22;5061661;28;45316;-60
2022/01/22 00:14:25;;;;;;;;;26.25;21.50;;;;;6.37;74.36;103349.00;5061813;28;45312;-60
2022/01/22 00:16:59;;;;;;;;;32.00;26.75;;;;;6.37;74.28;103349.88;5061761;28;45802;-60
2022/01/22 00:19:25;;;;;;;;;22.00;20.00;;;;;6.38;74.96;103351.63;5061542;28;45309;-63
2022/01/22 00:21:52;;;;;;;;;23.75;21.00;;;;;6.40;74.53;103349.97;5060655;28;45319;-63
2022/01/22 00:24:18;;;;;;;;;30.00;25.25;;;;;6.44;74.43;103355.25;5094091;27;46151;-62
2022/01/22 00:26:44;;;;;;;;;23.50;19.50;;;;;6.44;74.38;103343.22;5061471;28;45889;-63
2022/01/22 00:29:10;;;;;;;;;26.25;22.25;;;;;6.43;74.84;103338.88;5061631;28;45301;-64
2022/01/22 00:31:39;;;;;;;;;24.00;21.00;;;;;6.45;74.03;103332.06;5061379;28;45353;-63
2022/01/22 00:34:05;;;;;;;;;22.75;20.50;;;;;6.42;74.32;103329.38;5061379;28;46628;-64
2022/01/22 00:36:30;;;;;;;;;23.50;21.25;;;;;6.42;74.43;103329.38;5060291;28;45414;-64
2022/01/22 00:38:55;;;;;;;;;20.75;19.75;;;;;6.45;74.26;103332.06;5061387;28;45366;-63
2022/01/22 00:41:21;;;;;;;;;26.25;19.25;;;;;6.43;74.19;103331.13;5061486;28;45299;-64
2022/01/22 00:43:47;;;;;;;;;21.50;19.75;;;;;6.45;74.18;103332.06;5061231;28;45885;-64
2022/01/22 00:46:12;;;;;;;;;21.25;17.75;;;;;6.45;74.48;103342.38;5061203;28;45422;-60
2022/01/22 00:48:38;;;;;;;;;18.75;16.25;;;;;6.45;74.45;103338.94;5061100;28;45332;-60
2022/01/22 00:51:03;;;;;;;;;23.50;21.75;;;;;6.43;74.14;103336.31;5060619;28;45582;-60
2022/01/22 00:53:28;;;;;;;;;29.25;22.50;;;;;6.42;74.97;103328.50;5060864;28;47410;-59
2022/01/22 00:55:54;;;;;;;;;19.50;15.75;;;;;6.45;74.78;103332.06;5058348;28;45381;-59
2022/01/22 00:58:19;;;;;;;;;22.25;18.00;;;;;6.47;74.93;103337.28;5058700;28;45365;-60
2022/01/22 01:00:45;;;;;;;;;15.50;14.00;;;;;6.50;74.98;103347.69;5058643;28;45657;-59
2022/01/22 01:03:10;;;;;;;;;21.25;18.25;;;;;6.50;74.72;103339.94;5058722;28;46018;-59
2022/01/22 01:05:36;;;;;;;;;20.25;17.25;;;;;6.53;74.64;103342.63;5058977;28;45343;-60
2022/01/22 01:08:03;;;;;;;;;26.25;21.25;;;;;6.51;74.29;103352.03;5057889;28;45359;-60
2022/01/22 01:10:28;;;;;;;;;28.00;23.00;;;;;6.48;74.38;103344.19;5058446;28;45673;-60
2022/01/22 01:12:54;;;;;;;;;24.00;21.00;;;;;6.45;74.72;103344.09;5060862;28;45431;-60
2022/01/22 01:34:22;;;;;;;;;29.00;21.25;;;;;6.40;74.71;103331.88;5058195;28;45521;-60
2022/01/22 01:36:48;;;;;;;;;22.00;19.00;;;;;6.37;75.21;103321.47;5058602;28;45265;-60
2022/01/22 01:39:23;;;;;;;;;23.00;19.00;;;;;6.34;75.17;103323.97;5057719;28;45763;-60
2022/01/22 01:42:04;;;;;;;;;25.00;18.75;;;;;6.32;75.20;103317.00;5058741;28;45506;-61
2022/01/22 01:44:29;;;;;;;;;17.00;17.00;;;;;6.37;75.43;103321.47;5058423;28;45494;-60
2022/01/22 01:46:58;;;;;;;;;25.00;17.00;;;;;6.39;75.53;103306.91;5059349;28;45461;-61
2022/01/22 01:49:25;;;;;;;;;21.00;17.50;;;;;6.44;75.18;103317.38;5059735;28;45607;-61
2022/01/22 01:51:53;;;;;;;;;17.50;14.50;;;;;6.46;75.19;103328.66;5059766;28;45423;-60
2022/01/22 01:59:27;;;;;;;;;16.00;15.00;;;;;6.50;75.18;103324.44;5057159;28;45322;-59
2022/01/22 02:01:53;;;;;;;;;13.00;13.00;;;;;6.49;74.91;103318.41;5059245;28;45407;-60
2022/01/22 02:04:18;;;;;;;;;17.25;14.00;;;;;6.54;75.24;103331.44;5059789;28;45881;-60
2022/01/22 02:06:44;;;;;;;;;16.50;14.00;;;;;6.53;75.13;103327.13;5060050;28;45293;-60
2022/01/22 02:09:10;;;;;;;;;15.75;13.50;;;;;6.54;75.31;103326.28;5059864;28;45318;-58
2022/01/22 02:11:37;;;;;;;;;16.25;11.50;;;;;6.53;75.02;103319.38;5059846;28;45461;-58
2022/01/22 02:14:10;;;;;;;;;21.00;14.00;;;;;6.50;74.69;103332.19;5059770;28;46535;-58
2022/01/22 02:24:54;;;;;;;;;20.00;16.50;;;;;6.38;75.47;103312.88;5059626;28;45518;-59
2022/01/22 02:27:20;;;;;;;;;18.50;16.00;;;;;6.42;75.48;103310.44;5058550;28;45402;-60
2022/01/22 02:29:47;;;;;;;;;20.75;16.50;;;;;6.40;75.41;103311.22;5059578;28;45386;-60
2022/01/22 02:32:59;;;;;;;;;17.50;14.50;;;;;6.42;75.34;103325.94;5059574;28;45458;-59
2022/01/22 02:35:29;;;;;;;;;20.75;16.75;;;;;6.44;75.27;103324.25;5059576;28;46487;-60
2022/01/22 02:38:04;;;;;;;;;18.00;15.75;;;;;6.45;75.80;103320.84;5059303;28;45364;-59
2022/01/22 02:40:35;;;;;;;;;20.75;16.25;;;;;6.42;75.49;103321.63;5059841;28;45563;-59
2022/01/22 02:43:01;;;;;;;;;19.25;16.25;;;;;6.41;75.31;103322.47;5059674;28;45358;-63
2022/01/22 02:45:26;;;;;;;;;18.75;12.00;;;;;6.42;75.52;103315.59;5059313;28;45498;-60
2022/01/22 02:47:53;;;;;;;;;18.50;14.50;;;;;6.41;75.58;103306.97;5059480;28;45283;-61
2022/01/22 02:50:19;;;;;;;;;17.25;15.25;;;;;6.39;75.56;103300.84;5058404;28;45453;-61
2022/01/22 02:52:45;;;;;;;;;18.75;14.75;;;;;6.42;75.90;103307.84;5059319;28;45272;-61
2022/01/22 02:55:12;;;;;;;;;21.75;19.00;;;;;6.38;75.90;103299.97;5059254;28;45219;-60
2022/01/22 02:57:41;;;;;;;;;20.75;17.50;;;;;6.42;76.22;103302.69;5058952;28;45243;-61
2022/01/22 03:00:11;;;;;;;;;21.50;17.25;;;;;6.45;75.62;103310.53;5056170;28;45375;-60
2022/01/22 03:02:37;;;;;;;;;29.25;17.00;;;;;6.38;75.56;103299.97;5057159;28;45327;-60
2022/01/22 03:05:03;;;;;;;;;24.75;15.50;;;;;6.34;75.67;103297.25;5058939;28;45329;-60
2022/01/22 03:07:29;;;;;;;;;25.25;15.00;;;;;6.35;76.04;103299.88;5057287;28;45454;-60
2022/01/22 03:10:00;;;;;;;;;21.00;17.00;;;;;6.36;76.10;103293.88;5056858;28;45541;-60
2022/01/22 03:17:46;;;;;;;;;20.00;17.50;;;;;6.43;75.82;103294.09;5060226;28;45635;-59
2022/01/22 03:27:57;;;;;;;;;21.50;13.00;;;;;6.47;75.94;103301.09;5060200;28;45377;-59
2022/01/22 03:30:22;;;;;;;;;15.50;14.00;;;;;6.43;75.78;103296.69;5060176;28;45540;-59
2022/01/22 03:32:51;;;;;;;;;16.75;13.00;;;;;6.40;76.23;103303.47;5055121;28;45692;-59
2022/01/22 03:37:45;;;;;;;;;20.25;16.75;;;;;6.43;76.44;103309.59;5059607;28;45473;-59
2022/01/22 03:40:13;;;;;;;;;20.25;15.00;;;;;6.42;76.49;103298.38;5060519;28;45492;-59
2022/01/22 03:42:40;;;;;;;;;19.50;17.50;;;;;6.44;76.10;103308.78;5061114;28;45278;-59
2022/01/22 03:45:08;;;;;;;;;17.25;16.50;;;;;6.45;76.44;103315.69;5062252;28;46607;-59
2022/01/22 03:47:34;;;;;;;;;22.25;17.00;;;;;6.45;76.35;103315.69;5061729;28;45810;-59
2022/01/22 03:49:59;;;;;;;;;19.25;16.25;;;;;6.46;75.97;103313.16;5062360;28;45493;-59
2022/01/22 03:52:25;;;;;;;;;21.75;15.00;;;;;6.48;76.49;103313.19;5061717;28;45944;-59
2022/01/22 03:54:50;;;;;;;;;24.00;14.25;;;;;6.44;76.31;103314.81;5062196;28;46088;-60
2022/01/22 03:57:16;;;;;;;;;16.25;13.25;;;;;6.46;76.50;103317.44;5061824;28;45231;-59
2022/01/22 03:59:41;;;;;;;;;25.50;18.00;;;;;6.45;76.45;103307.94;5062114;28;45410;-60
2022/01/22 04:04:55;;;;;;;;;14.25;13.00;;;;;6.38;76.61;103312.88;5059224;28;46190;-59
2022/01/22 04:10:04;;;;;;;;;17.50;14.50;;;;;6.37;76.68;103311.13;5061822;28;45381;-59
2022/01/22 04:12:46;;;;;;;;;16.25;13.25;;;;;6.37;76.84;103310.25;5061858;28;45533;-59
2022/01/22 04:15:15;;;;;;;;;13.25;11.75;;;;;6.35;76.78;103302.47;5060460;28;45224;-60
2022/01/22 04:25:55;;;;;;;;;14.75;11.75;;;;;6.35;77.22;103299.00;5056313;28;45449;-61
2022/01/22 04:28:20;;;;;;;;;14.75;14.25;;;;;6.35;76.80;103305.06;5060283;28;45269;-61
2022/01/22 04:30:46;;;;;;;;;14.75;13.75;;;;;6.35;77.13;103299.88;5061650;28;45360;-61
2022/01/22 04:33:11;;;;;;;;;18.50;14.25;;;;;6.36;76.90;103295.59;5061429;28;45667;-59
2022/01/22 04:35:37;;;;;;;;;20.25;14.00;;;;;6.36;76.92;103299.06;5061354;28;46109;-59
2022/01/22 04:38:02;;;;;;;;;16.25;13.75;;;;;6.37;76.81;103298.22;5060072;28;45978;-59
2022/01/22 04:40:28;;;;;;;;;17.50;14.50;;;;;6.40;77.02;103300.91;5061564;28;45283;-62
2022/01/22 04:42:53;;;;;;;;;14.00;13.00;;;;;6.43;76.81;103296.69;5061536;28;45491;-60
2022/01/22 04:45:32;;;;;;;;;23.00;16.50;;;;;6.43;76.71;103301.84;5060320;28;45998;-60
2022/01/22 04:48:14;;;;;;;;;20.75;18.75;;;;;6.43;76.63;103301.84;5060465;28;45924;-63
2022/01/22 04:55:53;;;;;;;;;11.50;9.50;;;;;6.45;76.65;103297.59;5060752;28;45331;-67
2022/01/22 04:58:19;;;;;;;;;27.50;17.00;;;;;6.50;76.76;103302.06;5060526;28;45490;-67
2022/01/22 05:00:45;;;;;;;;;23.75;16.25;;;;;6.49;76.07;103302.91;5061203;28;45419;-66
2022/01/22 05:03:11;;;;;;;;;26.50;19.75;;;;;6.49;76.57;103305.47;5061203;28;45327;-64
2022/01/22 05:05:36;;;;;;;;;23.00;18.00;;;;;6.50;76.55;103307.25;5057181;28;46962;-64
2022/01/22 05:08:02;;;;;;;;;24.75;17.75;;;;;6.51;76.33;103305.53;5060232;28;45339;-64
2022/01/22 05:10:27;;;;;;;;;21.75;17.75;;;;;6.48;76.54;103303.72;5061031;28;45334;-67
2022/01/22 05:12:53;;;;;;;;;18.50;17.50;;;;;6.39;76.64;103288.81;5060734;28;45368;-71
2022/01/22 05:15:20;;;;;;;;;26.50;18.00;;;;;6.50;76.69;103303.78;5059220;28;46856;-63
2022/01/22 05:17:46;;;;;;;;;22.25;17.25;;;;;6.48;76.96;103301.16;5060486;28;45751;-62
2022/01/22 05:20:29;;;;;;;;;21.00;19.00;;;;;6.48;76.49;103295.09;5060805;28;45240;-63
2022/01/22 05:25:31;;;;;;;;;25.00;18.50;;;;;6.49;76.58;103299.44;5057659;28;45461;-65
2022/01/22 05:38:23;;;;;;;;;28.50;22.00;;;;;6.58;76.27;103315.22;5058455;28;45789;-65
2022/01/22 05:40:49;;;;;;;;;25.00;21.25;;;;;6.58;76.33;103315.22;5060816;28;45553;-61
2022/01/22 05:43:15;;;;;;;;;22.75;18.75;;;;;6.61;76.29;103312.75;5059936;28;45526;-60
2022/01/22 05:45:41;;;;;;;;;25.50;17.25;;;;;6.63;76.27;103317.13;5060079;28;45354;-61
2022/01/22 05:48:06;;;;;;;;;26.75;18.25;;;;;6.63;75.96;103311.06;5059070;28;45238;-61
2022/01/22 05:50:47;;;;;;;;;30.75;21.75;;;;;6.63;76.16;103321.41;5059418;28;45353;-61
2022/01/22 05:53:28;;;;;;;;;25.25;19.50;;;;;6.62;76.01;103317.06;5057647;28;45422;-60
2022/01/22 06:01:14;;;;;;;;;22.50;20.25;;;;;6.68;76.27;103312.09;5057546;28;45185;-61
2022/01/22 06:03:39;;;;;;;;;24.25;17.50;;;;;6.68;76.35;103319.84;5059369;28;45534;-62
2022/01/22 06:06:05;;;;;;;;;26.00;22.00;;;;;6.67;76.27;103324.13;5057976;28;45465;-62
2022/01/22 06:08:33;;;;;;;;;25.75;22.75;;;;;6.68;76.09;103319.84;5056058;28;45460;-62
2022/01/22 06:11:07;;;;;;;;;25.75;18.75;;;;;6.70;76.47;103325.91;5056231;28;45449;-62
2022/01/22 06:13:43;;;;;;;;;23.50;21.75;;;;;6.68;75.38;103332.75;5053813;28;45625;-63
2022/01/22 06:16:10;;;;;;;;;27.75;17.25;;;;;6.68;76.06;103331.06;5055834;28;46436;-63
2022/01/22 06:18:35;;;;;;;;;23.25;19.75;;;;;6.69;76.04;103324.16;5053288;28;45910;-63
2022/01/22 06:21:00;;;;;;;;;37.00;21.50;;;;;6.72;76.20;103326.84;5056182;28;45418;-63
2022/01/22 06:23:26;;;;;;;;;30.25;23.25;;;;;6.76;75.91;103327.81;5053414;28;45410;-63
2022/01/22 06:25:51;;;;;;;;;32.00;24.00;;;;;6.73;75.76;103323.44;5058201;28;46685;-63
2022/01/22 06:28:17;;;;;;;;;24.00;21.00;;;;;6.71;75.51;103325.09;5053218;28;45327;-63
2022/01/22 06:30:44;;;;;;;;;30.00;23.50;;;;;6.68;76.17;103315.53;5058404;28;45507;-63
2022/01/22 06:33:09;;;;;;;;;24.25;21.50;;;;;6.68;75.84;103330.16;5052139;28;45343;-63
2022/01/22 06:35:35;;;;;;;;;29.50;23.50;;;;;6.70;76.07;103331.09;5058134;28;45287;-63
2022/01/22 06:38:02;;;;;;;;;23.50;20.00;;;;;6.69;75.63;103332.81;5058445;28;45442;-62
2022/01/22 06:42:53;;;;;;;;;32.25;22.00;;;;;6.67;75.70;103325.84;5053497;28;45445;-64
2022/01/22 06:45:19;;;;;;;;;26.25;20.00;;;;;6.72;76.18;103329.44;5054641;28;45426;-63
2022/01/22 06:47:44;;;;;;;;;28.25;21.50;;;;;6.77;75.97;103324.38;5057142;28;45418;-63
2022/01/22 06:50:10;;;;;;;;;24.50;21.50;;;;;6.77;75.70;103332.13;5062588;28;45632;-63
2022/01/22 06:52:37;;;;;;;;;27.50;21.50;;;;;6.77;75.93;103338.19;5060715;28;45411;-61
2022/01/22 06:55:03;;;;;;;;;25.75;23.25;;;;;6.74;75.74;103337.22;5058398;28;47105;-62
2022/01/22 06:57:28;;;;;;;;;30.25;26.00;;;;;6.74;75.93;103334.63;5055450;28;45320;-63
2022/01/22 06:59:53;;;;;;;;;31.50;25.75;;;;;6.74;75.88;103332.94;5059537;28;45236;-63
2022/01/22 07:02:20;;;;;;;;;38.50;29.25;;;;;6.76;76.09;103341.59;5057614;28;45166;-63
2022/01/22 07:04:46;;;;;;;;;28.50;23.25;;;;;6.77;75.64;103339.91;5059323;28;47001;-61
2022/01/22 07:07:12;;;;;;;;;25.75;20.25;;;;;6.70;75.95;103329.38;5061984;28;45332;-62
2022/01/22 07:09:38;;;;;;;;;13.50;11.50;;;;;6.75;75.50;103337.25;5063119;28;45454;-61
2022/01/22 07:12:07;;;;;;;;;22.00;16.50;;;;;6.75;75.77;103329.50;5058835;28;45967;-61
2022/01/22 07:14:32;;;;;;;;;32.00;23.00;;;;;6.75;75.62;103337.25;5062520;28;45316;-61
2022/01/22 07:16:58;;;;;;;;;24.75;20.75;;;;;6.76;75.77;103331.25;5062574;28;45417;-61
2022/01/22 07:19:23;;;;;;;;;33.75;26.00;;;;;6.77;75.56;103339.91;5060240;28;45246;-61
2022/01/22 07:21:58;;;;;;;;;33.25;22.75;;;;;6.77;76.34;103340.78;5058903;28;45149;-62
2022/01/22 07:24:26;;;;;;;;;31.50;27.00;;;;;6.80;75.80;103340.84;5058234;28;46155;-63
2022/01/22 07:26:55;;;;;;;;;27.75;24.75;;;;;6.82;75.59;103346.09;5055575;28;45343;-61
2022/01/22 07:29:21;;;;;;;;;35.25;24.25;;;;;6.80;75.83;103334.81;5061798;28;45249;-61
2022/01/22 07:31:47;;;;;;;;;39.75;27.75;;;;;6.83;75.76;103343.56;5061635;28;45406;-62
2022/01/22 07:34:13;;;;;;;;;28.25;22.25;;;;;6.82;75.69;103346.97;5062124;28;46588;-62
2022/01/22 07:36:38;;;;;;;;;25.50;22.50;;;;;6.84;75.84;103347.91;5062502;28;45329;-62
2022/01/22 07:39:05;;;;;;;;;33.00;23.75;;;;;6.84;75.66;103347.91;5062305;28;45283;-63
2022/01/22 07:41:30;;;;;;;;;24.25;22.75;;;;;6.82;75.46;103352.16;5061961;28;45500;-63
2022/01/22 07:43:56;;;;;;;;;30.00;23.75;;;;;6.82;75.74;103353.84;5061942;28;45324;-63
2022/01/22 07:46:22;;;;;;;;;25.25;21.75;;;;;6.82;75.60;103353.84;5062055;28;45310;-63
2022/01/22 07:48:48;;;;;;;;;32.50;26.00;;;;;6.77;75.28;103348.53;5061120;28;45481;-63
2022/01/22 07:51:14;;;;;;;;;34.75;27.25;;;;;6.80;75.38;103355.50;5062096;28;45441;-63
2022/01/22 07:53:40;;;;;;;;;30.00;22.50;;;;;6.81;75.67;103357.25;5061427;28;46414;-61
2022/01/22 07:56:05;;;;;;;;;27.50;26.25;;;;;6.80;75.36;103361.53;5062232;28;45310;-62
2022/01/22 07:58:31;;;;;;;;;30.00;23.00;;;;;6.79;75.52;103358.91;5061450;28;45322;-61
2022/01/22 08:00:56;;;;;;;;;30.00;23.50;;;;;6.79;75.56;103354.59;5060773;28;45505;-62
2022/01/22 08:03:23;;;;;;;;;27.75;23.75;;;;;6.81;75.78;103365.91;5061834;28;45351;-62
2022/01/22 08:05:48;;;;;;;;;25.50;20.25;;;;;6.80;75.83;103356.38;5061612;28;45799;-62
2022/01/22 08:08:14;;;;;;;;;31.50;25.50;;;;;6.86;75.40;103366.03;5061971;28;45271;-61
2022/01/22 08:10:39;;;;;;;;;27.50;23.50;;;;;6.87;75.79;103363.50;5061680;28;45649;-61
2022/01/22 08:13:04;;;;;;;;;39.00;26.50;;;;;6.90;75.68;103373.03;5058994;28;45443;-61
2022/01/22 08:15:30;;;;;;;;;35.25;27.50;;;;;6.88;75.74;103360.06;5061146;28;45450;-61
2022/01/22 08:17:56;;;;;;;;;31.50;28.50;;;;;6.95;75.89;103374.03;5061718;28;45358;-61
2022/01/22 08:20:21;;;;;;;;;32.25;26.25;;;;;6.95;75.39;103372.34;5061295;28;45612;-60
2022/01/22 08:22:47;;;;;;;;;31.00;23.75;;;;;6.93;75.51;103374.00;5060972;28;45959;-60
2022/01/22 08:25:13;;;;;;;;;28.75;26.75;;;;;6.96;75.46;103380.97;5061640;28;45573;-61
2022/01/22 08:28:52;;;;;;;;;28.25;23.00;;;;;6.96;75.35;103383.56;5061259;28;45334;-61
2022/01/22 08:30:28;;;;;;;;;28.50;22.00;;;;;6.92;74.97;103380.00;5058833;28;45474;-64
2022/01/22 08:38:05;;;;;;;;;39.25;22.00;;;;;6.88;75.04;103385.91;5049661;28;45549;-62
2022/01/22 08:40:31;;;;;;;;;35.25;25.50;;;;;6.90;75.57;103392.00;5061074;28;45461;-62
2022/01/22 08:42:56;;;;;;;;;31.00;26.75;;;;;6.97;75.30;103395.66;5061174;28;46288;-61
2022/01/22 08:45:22;;;;;;;;;32.75;24.50;;;;;6.99;75.52;103383.63;5060769;28;45373;-62
2022/01/22 08:47:47;;;;;;;;;26.50;25.00;;;;;7.04;75.18;103396.72;5060032;28;45264;-61
2022/01/22 08:50:12;;;;;;;;;33.00;22.50;;;;;7.05;75.20;103404.53;5061114;28;45515;-63
2022/01/22 08:52:38;;;;;;;;;27.25;24.25;;;;;7.06;75.11;103400.22;5060367;28;46172;-61
2022/01/22 08:55:05;;;;;;;;;31.25;16.75;;;;;7.06;75.21;103403.69;5061128;28;45270;-60
2022/01/22 08:57:31;;;;;;;;;32.00;28.75;;;;;7.08;75.24;103398.56;5060740;28;45411;-60
2022/01/22 08:59:56;;;;;;;;;33.50;25.75;;;;;7.11;74.78;103404.69;5060391;28;45628;-60
2022/01/22 09:02:21;;;;;;;;;35.50;27.25;;;;;7.13;75.11;103407.31;5060943;28;45567;-60
2022/01/22 09:04:47;;;;;;;;;40.00;31.50;;;;;7.15;74.12;103413.41;5060346;28;45445;-60
2022/01/22 09:07:12;;;;;;;;;33.75;26.25;;;;;7.13;74.18;103417.66;5060903;28;45203;-60
2022/01/22 09:09:39;;;;;;;;;38.00;28.25;;;;;7.12;74.59;103421.97;5060636;28;45178;-59
2022/01/22 09:12:06;;;;;;;;;31.25;26.25;;;;;7.13;74.56;103420.25;5058604;28;46991;-59
2022/01/22 09:14:32;;;;;;;;;39.75;29.50;;;;;7.14;74.13;103422.00;5057082;28;45272;-61
2022/01/22 09:16:59;;;;;;;;;31.25;25.50;;;;;7.17;74.65;103422.09;5053356;28;45572;-61
2022/01/22 09:19:32;;;;;;;;;32.00;26.00;;;;;7.19;74.50;103415.25;5059348;28;45352;-60
2022/01/22 09:21:57;;;;;;;;;35.25;27.25;;;;;7.19;74.09;103413.53;5048702;28;46330;-61
2022/01/22 09:24:23;;;;;;;;;35.25;30.75;;;;;7.25;74.50;103418.03;5058092;28;45538;-62
2022/01/22 09:26:48;;;;;;;;;28.75;26.00;;;;;7.29;74.29;103417.28;5059621;28;45539;-61
2022/01/22 09:29:15;;;;;;;;;34.25;25.50;;;;;7.34;74.54;103418.28;5060283;28;45355;-62
2022/01/22 09:31:41;;;;;;;;;38.75;29.00;;;;;7.41;74.03;103425.41;5058695;28;45499;-62
2022/01/22 09:34:06;;;;;;;;;31.75;27.00;;;;;7.40;73.22;103427.94;5060382;28;45160;-62
2022/01/22 09:36:32;;;;;;;;;31.75;25.50;;;;;7.40;73.28;103440.88;5060069;28;45207;-62
2022/01/22 09:38:58;;;;;;;;;34.75;23.25;;;;;7.36;73.29;103444.22;5058383;28;45293;-74
2022/01/22 09:41:26;;;;;;;;;36.75;25.25;;;;;7.42;73.49;103441.81;5060195;28;47436;-61
2022/01/22 09:43:53;;;;;;;;;27.00;23.00;;;;;7.42;72.93;103440.09;5059623;28;46020;-65
2022/01/22 09:46:20;;;;;;;;;28.00;21.00;;;;;7.44;72.91;103443.63;5059870;28;45335;-62
2022/01/22 09:48:47;;;;;;;;;22.25;19.00;;;;;7.41;72.81;103443.53;5058847;28;45448;-62
2022/01/22 09:51:13;;;;;;;;;26.25;23.25;;;;;7.40;72.86;103436.56;5060142;28;46334;-61
2022/01/22 09:53:39;;;;;;;;;30.25;26.25;;;;;7.40;71.82;103444.34;5059406;28;46051;-61
2022/01/22 09:56:05;;;;;;;;;32.75;26.00;;;;;7.35;72.50;103443.34;5060155;28;45347;-60
2022/01/22 09:58:31;;;;;;;;;22.50;19.25;;;;;7.32;73.28;103440.66;5059701;28;45532;-64
2022/01/22 10:01:17;;;;;;;;;29.25;27.25;;;;;7.40;72.86;103446.91;5059713;28;45376;-65
2022/01/22 10:03:43;;;;;;;;;27.75;22.00;;;;;7.46;72.34;103448.84;5058990;28;45493;-65
2022/01/22 10:06:16;;;;;;;;;27.25;21.25;;;;;7.46;72.80;103444.53;5056672;27;45826;-64
2022/01/22 10:08:42;;;;;;;;;33.50;27.00;;;;;7.50;72.91;103446.38;5059335;28;45713;-65
2022/01/22 10:11:22;;;;;;;;;29.75;24.25;;;;;7.56;72.47;103443.06;5059859;28;45358;-65
2022/01/22 10:13:53;;;;;;;;;31.50;25.25;;;;;7.56;71.82;103451.72;5058984;28;45461;-65
2022/01/22 10:16:24;;;;;;;;;26.00;17.25;;;;;7.57;72.03;103452.59;5057904;28;45513;-64
2022/01/22 10:19:13;;;;;;;;;29.25;25.00;;;;;7.59;71.58;103446.63;5056127;28;45608;-64
2022/01/22 10:21:49;;;;;;;;;39.00;29.25;;;;;7.58;72.03;103456.94;5057442;28;47338;-64
2022/01/22 10:24:43;;;;;;;;;36.00;29.50;;;;;7.59;72.34;103456.97;5053503;28;45489;-64
2022/01/22 10:27:39;;;;;;;;;29.75;27.00;;;;;7.59;72.45;103451.78;5057134;28;45475;-64
2022/01/22 10:30:12;;;;;;;;;32.00;23.25;;;;;7.68;71.95;103460.66;5057613;28;47123;-64
2022/01/22 10:32:53;;;;;;;;;34.75;27.00;;;;;7.65;71.56;103452.81;5057644;28;45989;-64
2022/01/22 10:35:27;;;;;;;;;22.25;20.25;;;;;7.72;71.49;103459.91;5048734;28;45430;-64
2022/01/22 10:38:02;;;;;;;;;29.75;24.75;;;;;7.77;71.47;103450.56;5057207;28;45383;-64
2022/01/22 10:40:37;;;;;;;;;29.50;25.50;;;;;7.82;70.60;103455.03;5059270;28;45220;-64
2022/01/22 10:48:52;;;;;;;;;31.00;28.00;;;;;7.92;70.98;103450.97;5054106;28;45377;-63
2022/01/22 10:51:18;;;;;;;;;27.25;21.50;;;;;7.91;71.34;103451.81;5058811;28;45145;-63
2022/01/22 10:53:44;;;;;;;;;31.25;23.00;;;;;7.97;71.03;103453.69;5058674;28;46550;-62
2022/01/22 10:56:12;;;;;;;;;28.00;21.25;;;;;8.03;70.67;103449.56;5058935;28;45186;-62
2022/01/22 10:58:58;;;;;;;;;33.75;22.75;;;;;8.04;71.06;103446.13;5058122;28;45501;-63
2022/01/22 11:01:30;;;;;;;;;28.25;23.50;;;;;8.05;70.18;103447.88;5058760;28;45407;-62
2022/01/22 11:04:04;;;;;;;;;31.75;25.00;;;;;8.03;69.70;103449.56;5058903;28;46378;-62
2022/01/22 11:06:31;;;;;;;;;25.50;25.25;;;;;8.04;70.24;103445.25;5057917;28;45900;-62
2022/01/22 11:08:56;;;;;;;;;21.25;15.75;;;;;8.09;70.01;103443.66;5059195;28;45353;-62
2022/01/22 11:11:23;;;;;;;;;25.75;22.75;;;;;8.08;70.06;103435.00;5058405;28;45635;-63
2022/01/22 11:13:49;;;;;;;;;30.75;25.75;;;;;8.08;69.63;103436.72;5058709;28;46451;-63
2022/01/22 11:16:16;;;;;;;;;32.25;27.75;;;;;8.13;70.43;103436.00;5056938;28;45434;-62
2022/01/22 11:18:49;;;;;;;;;25.25;22.00;;;;;8.15;70.06;103434.31;5058489;28;45385;-63
2022/01/22 11:21:17;;;;;;;;;32.00;26.50;;;;;8.20;70.22;103437.91;5055627;28;45364;-62
2022/01/22 11:23:45;;;;;;;;;28.25;19.75;;;;;8.30;69.29;103435.56;5056483;28;45283;-62
2022/01/22 11:26:13;;;;;;;;;24.25;22.25;;;;;8.33;69.03;103428.75;5055855;28;45265;-62
2022/01/22 11:28:39;;;;;;;;;23.50;15.50;;;;;8.40;68.98;103429.78;5058635;28;45390;-62
2022/01/22 11:31:06;;;;;;;;;28.50;20.00;;;;;8.41;69.36;103426.34;5057872;28;45251;-62
2022/01/22 11:33:34;;;;;;;;;21.50;18.00;;;;;8.38;69.35;103424.56;5058910;28;45420;-62
2022/01/22 11:36:13;;;;;;;;;32.25;26.25;;;;;8.38;69.44;103421.97;5057750;28;45904;-62
2022/01/22 11:38:41;;;;;;;;;22.00;19.25;;;;;8.41;68.70;103437.63;5061718;28;45509;-63
2022/01/22 11:41:15;;;;;;;;;24.50;21.25;;;;;8.39;69.08;103428.03;5061241;28;45197;-62
2022/01/22 11:46:37;;;;;;;;;27.25;22.50;;;;;8.44;69.41;103424.75;5056170;28;45281;-62
2022/01/22 11:49:28;;;;;;;;;29.25;22.25;;;;;8.53;69.16;103417.19;5059133;28;45602;-63
2022/01/22 11:52:14;;;;;;;;;22.00;20.50;;;;;8.59;68.69;103411.25;5061044;28;45292;-64
2022/01/22 11:55:00;;;;;;;;;29.75;18.00;;;;;8.65;68.95;103421.78;5061322;28;45326;-64
2022/01/22 11:57:31;;;;;;;;;30.75;21.00;;;;;8.72;68.58;103422.78;5061198;28;45320;-63
2022/01/22 12:00:26;;;;;;;;;26.00;20.25;;;;;8.77;68.43;103422.03;5061047;28;45402;-65
2022/01/22 12:03:03;;;;;;;;;32.00;24.00;;;;;8.76;68.51;103415.13;5060443;28;45327;-62
2022/01/22 12:05:29;;;;;;;;;27.25;21.75;;;;;8.74;68.54;103406.44;5060409;28;46143;-62
2022/01/22 12:07:59;;;;;;;;;29.25;21.75;;;;;8.76;68.26;103409.94;5060835;28;45239;-63
2022/01/22 12:10:41;;;;;;;;;22.00;18.25;;;;;8.74;68.34;103398.66;5062112;28;45411;-63
2022/01/22 12:16:08;;;;;;;;;25.75;22.25;;;;;8.76;67.85;103396.97;5061470;28;45694;-63
2022/01/22 12:18:39;;;;;;;;;30.50;24.00;;;;;8.80;68.31;103390.13;5061679;28;45830;-63
2022/01/22 12:23:33;;;;;;;;;27.50;23.25;;;;;8.79;67.62;103397.03;5058578;28;45461;-63
2022/01/22 12:26:01;;;;;;;;;30.00;23.00;;;;;8.79;68.20;103394.44;5060859;28;45322;-63
2022/01/22 12:28:45;;;;;;;;;28.25;20.25;;;;;8.82;68.63;103393.66;5060054;28;45290;-63
2022/01/22 12:31:16;;;;;;;;;25.25;19.50;;;;;8.84;67.94;103392.84;5054309;28;45426;-63
2022/01/22 12:33:41;;;;;;;;;28.00;22.00;;;;;8.81;67.84;103390.19;5081191;27;45420;-65
2022/01/22 12:36:21;;;;;;;;;24.67;22.67;;;;;8.88;67.84;103392.91;5059914;28;45323;-66
2022/01/22 12:38:59;;;;;;;;;20.00;17.75;;;;;8.89;67.18;103384.28;5057573;28;45685;-61
2022/01/22 12:44:05;;;;;;;;;26.25;24.00;;;;;8.99;68.02;103370.66;5062344;28;45664;-66
2022/01/22 12:46:31;;;;;;;;;26.50;21.75;;;;;9.08;67.31;103379.53;5062732;28;45263;-67
2022/01/22 12:48:57;;;;;;;;;25.75;19.75;;;;;9.09;67.63;103367.44;5063768;28;45462;-62
2022/01/22 12:51:26;;;;;;;;;32.00;22.25;;;;;9.08;67.80;103366.56;5057811;28;45244;-58
2022/01/22 12:53:52;;;;;;;;;35.75;25.50;;;;;9.06;67.77;103367.38;5060309;28;45348;-59
2022/01/22 12:59:05;;;;;;;;;29.25;22.00;;;;;9.07;67.72;103362.22;5055005;28;45523;-59
2022/01/22 13:01:33;;;;;;;;;31.75;25.50;;;;;9.06;67.91;103357.00;5058388;28;45420;-57
2022/01/22 13:04:02;;;;;;;;;32.00;23.75;;;;;9.05;67.83;103352.66;5058821;28;45701;-46
2022/01/22 13:06:38;;;;;;;;;34.00;24.00;;;;;9.09;72.93;103351.88;5059682;28;46953;-46
2022/01/22 13:09:05;;;;;;;;;21.00;18.50;;;;;9.37;69.28;103363.66;5059107;28;45403;-47
2022/01/22 13:11:32;;;;;;;;;22.75;21.25;;;;;9.48;71.62;103349.19;5054205;28;45872;-47
2022/01/22 13:13:58;;;;;;;;;29.75;24.75;;;;;9.68;64.98;103353.00;5060071;28;45573;-47
2022/01/22 13:16:25;;;;;;;;;30.00;28.00;;;;;9.57;65.44;103345.88;5070660;28;46161;-61